Tiempo atmosférico en la estación meteorológica de Puebla De Don Rodrigo, Ciudad Real (485 m.)



Fecha
DESCASC
Temp. máxima en grados centígrados (hora)
DESCASC
Temp. mínima en grados centígrados (hora)
DESCASC
Temp. media en grados centígrados
DESCASC
Racha de viento máxima en m/sg (hora)
DESCASC
Velocidad máxima media en intervalos de 10 minutos(hora)
DESCASC
Precipitaciones diarias en mm
DESCASC
Precipitaciones de 00:00 a 06:00 en mm
DESCASC
Precipitaciones de 06:00 a 12:00 en mm
DESCASC
Precipitaciones de 12:00 a 18:00 en mm
DESCASC
Precipitaciones de 18:00 a 24:00 en mm
DESCASC
22-01-2020 12.1 (17:00) 4.7 (08:40) 8.4 13.06 (01:50) 5 (01:00) 0 0 0 0 0
21-01-2020 8.3 (13:50) 4.2 (07:40) 6.3 12.22 (05:00) 6.94 (05:00) 0 0 0 0 0
20-01-2020 6.3 (16:50) 2.3 (11:10) 4.3 18.33 (03:30) 11.11 (03:30) 0 0 0 0 0
19-01-2020 9.4 (00:00) 4.2 (00:00) 6.8 20.56 (21:00) 9.72 (21:10) 0.8 0.8 0 0 0
18-01-2020 11.9 (21:30) 4.4 (00:00) 8.1 9.44 (22:50) 3.89 (16:50) 4.5 0.2 3.6 0.7 0
17-01-2020 14.8 (13:00) 5.3 (00:00) 10.1 9.17 (16:40) 3.61 (03:50) 0 0 0 0 0
16-01-2020 17.2 (15:30) 6.2 (00:00) 11.7 7.78 (16:40) 4.72 (16:20) 0 0 0 0 0
15-01-2020 13 (13:40) 2.3 (00:00) 7.6 11.39 (16:00) 3.06 (12:40) 0 0 0 0 0
14-01-2020 12.3 (15:00) -4.2 (-00:0) 4.1 5.28 (16:50) 3.89 (16:50) 0 0 0 0 0
13-01-2020 14.2 (15:50) -3.8 (-00:0) 5.2 7.78 (19:10) 2.78 (19:40) 0 0 0 0 0
12-01-2020 15.4 (16:50) -4.2 (-00:0) 5.6 3.61 (18:30) 2.78 (18:30) 0 0 0 0 0
11-01-2020 14.5 (14:50) -1 (-00:0) 6.8 6.94 (16:00) 2.78 (04:30) 0 0 0 0 0
10-01-2020 12.5 (13:10) 2 (00:00) 7.3 9.72 (15:10) 5.83 (16:00) 0 0 0 0 0
09-01-2020 14.9 (16:50) -1.2 (-00:0) 6.8 5 (18:10) 2.78 (18:40) 0 0 0 0 0
08-01-2020 17.5 (17:30) -1.9 (-00:0) 7.8 2.78 (16:20) 1.67 (16:20) 0 0 0 0 0
07-01-2020 15 (15:30) -1.7 (-00:0) 6.6 2.22 (19:20) 1.39 (00:40) 0 0 0 0 0
06-01-2020 12.8 (16:50) -1.5 (-00:0) 5.7 2.78 (22:20) 1.67 (22:20) 0 0 0 0 0
05-01-2020 13.5 (17:20) -0.6 (-00:0) 6.4 2.22 (07:00) 1.11 (18:30) 0 0 0 0 0
04-01-2020 14.3 (15:50) -1 (-00:0) 6.7 4.72 (18:20) 3.06 (18:20) 0 0 0 0 0
03-01-2020 10.6 (15:20) 1.3 (00:00) 6 4.72 (15:40) 1.39 (14:00) 0 0 0 0 0
02-01-2020 14.2 (17:20) -1 (-00:0) 6.6 2.78 (03:20) 1.39 (06:20) 0 0 0 0 0
01-01-2020 10.9 (17:10) 0.5 (00:00) 5.7 4.17 (11:30) 2.5 (11:30) 0 0 0 0 0
31-12-2019 11 (16:20) 1.6 (00:00) 6.3 6.11 (07:10) 3.61 (07:10) 0 0 0 0 0
30-12-2019 10.8 (15:20) 0.9 (00:00) 5.9 6.11 (16:30) 4.17 (16:30) 0 0 0 0 0
29-12-2019 16.4 (16:10) 0.3 (00:00) 8.3 3.33 (18:00) 1.67 (22:20) 0 0 0 0 0
28-12-2019 17.6 (16:30) 2.9 (00:00) 10.3 2.78 (08:20) 1.67 (08:20) 0.1 0.1 0 0 0
27-12-2019 15.8 (15:30) 1.7 (00:00) 8.8 5.28 (14:00) 1.67 (13:20) 0 0 0 0 0
26-12-2019 15.1 (17:00) 3.4 (00:00) 9.3 3.06 (06:00) 1.39 (11:50) 0.3 0.2 0.1 0 0
25-12-2019 15.1 (16:30) 3.7 (00:00) 9.4 2.5 (08:20) 1.67 (08:20) 0.1 0 0.1 0 0

Gráficas

Temp. máximas Temp. mínimas Temp. medias Precipitaciones Rachas de viento máximas Velocidades máximas media en intervalos de 10 minutos

Datos horarios

Fecha y hora oficial Temperatura (ºC) Velocidad del viento (km/h) Dirección del viento Racha (km/h) Dirección de racha Precipitación (mm) Presión (hPa) Tendencia (hPa) Humedad (%)
2020-01-23 23:00:00 6.9 3 Noroeste 7 Noroeste 0 956.6 0.9 81
2020-01-23 22:00:00 6.8 2 Nordeste 8 Este 0 956.6 1 77
2020-01-23 21:00:00 7.6 6 Este 8 Sudeste 0 955.9 1 75
2020-01-23 20:00:00 8.2 4 Sudeste 15 Sur 0 955.7 1.1 70
2020-01-23 19:00:00 8.7 6 Sudeste 12 Sudeste 0 955.6 0.7 71
2020-01-23 18:00:00 9.4 4 Este 15 Sudeste 0 954.9 0 69
2020-01-23 17:00:00 10.3 8 Sudeste 23 Sudeste 0 954.6 -0.4 65
2020-01-23 16:00:00 10.3 10 Sudeste 18 Este 0 954.9 -0.9 60
2020-01-23 15:00:00 10.5 12 Sudeste 22 Sudeste 0 954.9 -1.3 59
2020-01-23 14:00:00 9.9 11 Sudeste 23 Sudeste 0 955 -1.2 60
2020-01-23 13:00:00 9.8 14 Sudeste 24 Sudeste 0 955.8 0.1 58
2020-01-23 12:00:00 9.9 10 Sudeste 22 Este 0 956.2 1.1 64
2020-01-23 11:00:00 6.3 10 Sudeste 19 Sudeste 0 956.2 1.9 75
2020-01-23 10:00:00 5.3 12 Este 17 Este 0 955.7 1.1 84
2020-01-23 09:00:00 4.2 6 Este 13 Sudeste 0 955.1 0.5 89
2020-01-23 08:00:00 4.5 8 Este 15 Sudeste 0 954.3 -0.6 89
2020-01-23 07:00:00 4.8 7 Este 14 Sudeste 0 954.6 0.1 91
2020-01-23 06:00:00 4.3 6 Este 12 Sudeste 0.1 954.6 0 94
2020-01-23 05:00:00 4 5 Nordeste 8 Nordeste 0 954.9 0.1 95
2020-01-23 04:00:00 3.9 3 Este 7 Este 0 954.5 -0.3 94
2020-01-23 03:00:00 4.3 4 Nordeste 8 Norte 0 954.6 -0.3 92
2020-01-23 02:00:00 4.7 0 Calma 6 Nordeste 0 954.8 0.4 89
2020-01-23 01:00:00 5.7 2 Sudeste 8 Nordeste 0 954.8 0.6 83
2020-01-23 00:00:00 6 3 Nordeste 8 Nordeste 0 954.9 0.9 77
2020-01-22 23:00:00 7 5 Este 9 Este 0 954.4 0.8 72
2020-01-22 22:00:00 7.9 4 Sudeste 7 Este 0 954.2 1 69
2020-01-22 21:00:00 7.6 6 Sudeste 14 Este 0 954 0.9 70
2020-01-22 20:00:00 8.6 5 Este 14 Sudeste 0 953.6 0.7 68
2020-01-22 19:00:00 8.8 4 Este 15 Este 0 953.2 0.1 63
2020-01-22 18:00:00 10.1 3 Este 12 Este 0 953.1 -0.7 54
2020-01-22 17:00:00 12 5 Este 11 Este 0 952.9 -1.5 49
2020-01-22 16:00:00 10.5 3 Este 11 Este 0 953.1 -1.7 56
2020-01-22 15:00:00 10.2 6 Sudeste 17 Sudeste 0 953.8 -1.5 57
2020-01-22 14:00:00 10 12 Este 21 Sudeste 0 954.4 -0.8 55
2020-01-22 13:00:00 10 15 Sudeste 23 Este 0 954.8 0 61
2020-01-22 12:00:00 8.7 8 Sudeste 15 Sudeste 0 955.3 0.8 70
2020-01-22 11:00:00 6.6 6 Sudeste 14 Sudeste 0 955.2 1.3 77
2020-01-22 10:00:00 5.6 7 Sudeste 14 Este 0 954.8 1.5 85
2020-01-22 09:00:00 5.3 7 Sudeste 12 Sudeste 0 954.5 1.2 88
2020-01-22 08:00:00 5 4 Este 8 Este 0 953.9 0.7 90
2020-01-22 07:00:00 5.2 5 Sudeste 12 Sudeste 0 953.3 0.4 89
2020-01-22 06:00:00 5.2 9 Sudeste 17 Sudeste 0 953.3 -0.4 90
2020-01-22 05:00:00 5.1 7 Sudeste 22 Sudeste 0 953.2 -0.2 85
2020-01-22 04:00:00 5.4 7 Sudeste 14 Este 0 952.9 -0.7 81
2020-01-22 03:00:00 5.3 7 Sudeste 19 Sudeste 0 953.7 0.4 81
2020-01-22 02:00:00 5.1 10 Sudeste 47 Sudeste 0 953.4 0.3 77
2020-01-22 01:00:00 6.1 18 Sudeste 37 Este 0 953.6 0.4 75
2020-01-22 00:00:00 5.7 13 Este 21 Este 0 953.3 0.3 75
2020-01-21 23:00:00 6.2 9 Sudeste 25 Nordeste 0 953.1 0.7 75
2020-01-21 22:00:00 6.1 12 Este 20 Este 0 953.2 1 74
2020-01-21 21:00:00 6.1 14 Este 27 Este 0 953 1.4 73
2020-01-21 20:00:00 6.3 15 Nordeste 29 Este 0 952.4 1.2 70
2020-01-21 19:00:00 7.1 18 Nordeste 39 Nordeste 0 952.2 0.9 65
2020-01-21 18:00:00 7.6 21 Nordeste 38 Nordeste 0 951.6 0.2 59
2020-01-21 17:00:00 8.2 3 Norte 36 Este 0 951.2 -1.1 56
2020-01-21 16:00:00 8.1 21 Nordeste 38 Nordeste 0 951.3 -1.9 57
2020-01-21 15:00:00 7.7 10 Nordeste 29 Nordeste 0 951.4 -2.8 61
2020-01-21 14:00:00 8.2 5 Este 29 Nordeste 0 952.3 -2.3 58
2020-01-21 13:00:00 7.1 13 Nordeste 37 Nordeste 0 953.2 -1.7 61
2020-01-21 12:00:00 6.5 22 Nordeste 33 Nordeste 0 954.2 -0.6 61
2020-01-21 11:00:00 5.1 13 Nordeste 34 Este 0 954.6 -0.2 68
2020-01-21 10:00:00 5.1 19 Nordeste 32 Nordeste 0 954.9 -0.2 58
2020-01-21 09:00:00 4.5 4 Norte 15 Nordeste 0 954.8 -0.4 58
2020-01-21 08:00:00 4.4 5 Sudoeste 18 Nordeste 0 954.8 -0.5 57
2020-01-21 07:00:00 4.5 3 Sudeste 18 Sur 0 955.1 -0.7 58
2020-01-21 06:00:00 5.1 6 Este 35 Este 0 955.2 -0.8 56
2020-01-21 05:00:00 5.1 25 Nordeste 44 Nordeste 0 955.3 -1.5 56
2020-01-21 04:00:00 5.1 21 Nordeste 38 Nordeste 0 955.8 -1.2 54
2020-01-21 03:00:00 5.2 20 Nordeste 39 Este 0 956 -1.3 54
2020-01-21 02:00:00 5.3 15 Nordeste 33 Nordeste 0 956.8 -0.9 54
2020-01-21 01:00:00 5 6 Este 26 Este 0 957 0 54
2020-01-21 00:00:00 5.1 9 Este 37 Nordeste 0 957.3 0.4 54
2020-01-20 23:00:00 5.1 23 Nordeste 49 Nordeste 0 957.7 0.8 53
2020-01-20 22:00:00 5.7 22 Nordeste 46 Nordeste 0 957 0.6 51
2020-01-20 21:00:00 5.7 19 Nordeste 41 Nordeste 0 956.9 0.6 50
2020-01-20 20:00:00 6 19 Nordeste 38 Nordeste 0 956.9 0.9 50
2020-01-20 19:00:00 6.1 19 Nordeste 92 Nordeste 0 956.4 0.4 50
2020-01-20 18:00:00 6.1 25 Nordeste 47 Nordeste 0 956.3 -0.2 50
2020-01-20 17:00:00 6.1 21 Nordeste 53 Nordeste 0 956 -0.9 48
2020-01-20 16:00:00 5.5 19 Nordeste 39 Nordeste 0 956 -2.1 50
2020-01-20 15:00:00 4.8 17 Nordeste 45 Nordeste 0 956.5 -1.9 50
2020-01-20 14:00:00 4.7 25 Nordeste 38 Este 0 956.9 -1.5 48
2020-01-20 13:00:00 3.9 17 Nordeste 44 Nordeste 0 958.1 -0.2 53
2020-01-20 12:00:00 3 20 Nordeste 41 Nordeste 0 958.4 0.7 57
2020-01-20 11:00:00 2.6 23 Nordeste 50 Nordeste 0 958.4 1.2 55
2020-01-20 10:00:00 2.7 30 Este 57 Nordeste 0 958.3 0.7 46
2020-01-20 09:00:00 3.1 28 Nordeste 56 Nordeste 0 957.7 0 43
2020-01-20 08:00:00 3.8 30 Nordeste 63 Nordeste 0 957.2 -0.4 35
2020-01-20 07:00:00 3.7 32 Nordeste 59 Nordeste 0 957.6 -0.7 35
2020-01-20 06:00:00 4.2 34 Nordeste 58 Nordeste 0 957.7 -0.7 33
2020-01-20 05:00:00 4.4 31 Nordeste 56 Nordeste 0 957.6 -1.7 34
2020-01-20 04:00:00 4.2 33 Nordeste 66 Nordeste 0 958.3 -1.3 35
2020-01-20 03:00:00 4.2 27 Nordeste 93 Nordeste 0 958.4 -1.9 35
2020-01-20 02:00:00 4.5 22 Nordeste 50 Nordeste 0 959.3 0.3 39
2020-01-20 01:00:00 4.6 30 Nordeste 55 Nordeste 0 959.6 0.4 39
2020-01-20 00:00:00 4.5 22 Nordeste 54 Nordeste 0 960.3 1.6 36
2020-01-19 23:00:00 5.5 30 Nordeste 53 Nordeste 0 959 0.6 29
2020-01-19 22:00:00 6.4 31 Nordeste 62 Nordeste 0 959.2 1.2 25
2020-01-19 21:00:00 7.4 29 Nordeste 74 Nordeste 0 958.7 0.9 25
2020-01-19 20:00:00 8.4 25 Nordeste 48 Nordeste 0 958.4 1.3 26
2020-01-19 19:00:00 6.8 15 Este 41 Nordeste 0 958 1.3 42
2020-01-19 18:00:00 7.9 21 Nordeste 51 Nordeste 0 957.8 1.4 38
2020-01-19 17:00:00 9 24 Nordeste 50 Nordeste 0 957.1 -0.5 37
2020-01-19 16:00:00 8.8 21 Nordeste 51 Norte 0 956.7 -1.7 42
2020-01-19 15:00:00 9 30 Nordeste 56 Nordeste 0 956.4 -2.2 43
2020-01-19 14:00:00 8.6 15 Norte 30 Norte 0 957.6 -0.9 55
2020-01-19 13:00:00 8.2 10 Norte 17 Norte 0 958.4 0.6 64
2020-01-19 12:00:00 8.2 0 Calma 11 Este 0 958.6 0.3 75
2020-01-19 11:00:00 6.4 5 Oeste 12 Oeste 0 958.5 1 84
2020-01-19 10:00:00 5.3 4 Sudoeste 11 Sudoeste 0 957.8 0.1 92
2020-01-19 09:00:00 4.5 6 Sudoeste 10 Sudoeste 0 958.3 0.1 94
2020-01-19 08:00:00 4.7 7 Oeste 10 Oeste 0 957.5 -0.6 94
2020-01-19 07:00:00 5.6 5 Sudoeste 9 Sudoeste 0 957.7 -0.4 94
2020-01-19 06:00:00 5.8 0 Calma 8 Sudoeste 0.7 958.2 -0.6 92
2020-01-19 05:00:00 5.8 0 Calma 9 Oeste 0.1 958.1 -0.7 89
2020-01-19 04:00:00 6.3 4 Sudoeste 11 Oeste 0 958.1 -1 87
2020-01-19 03:00:00 8.1 2 Sudoeste 18 Noroeste 0 958.8 -0.5 83
2020-01-19 02:00:00 8.9 4 Oeste 18 Oeste 0 958.8 -1.1 81
2020-01-19 01:00:00 8.9 6 Oeste 30 Sudoeste 0 959.1 -0.6 77
2020-01-19 00:00:00 9.4 11 Sudoeste 32 Oeste 0 959.3 -0.4 76
2020-01-18 23:00:00 10.4 10 Oeste 34 Oeste 0 959.9 0.4 76
2020-01-18 22:00:00 11.4 9 Oeste 30 Oeste 0 959.7 -1.3 83
2020-01-18 21:00:00 11 7 Sudoeste 19 Sudoeste 0 959.7 -1.9 93
2020-01-18 20:00:00 10.7 4 Sudoeste 17 Oeste 0 959.5 -2.5 95
2020-01-18 19:00:00 10.4 7 Sudoeste 14 Sudoeste 0 961 -1.8 95
2020-01-18 18:00:00 10.2 6 Sudoeste 21 Sudoeste 0.1 961.6 -2.1 95
2020-01-18 17:00:00 10.1 11 Sudoeste 24 Sudoeste 0 962 -2.7 94
2020-01-18 16:00:00 10 8 Sur 17 Sudoeste 0 962.8 -3.1 93
2020-01-18 15:00:00 9.6 4 Sur 15 Sur 0.2 963.7 -3 94
2020-01-18 14:00:00 9.1 0 Calma 21 Sur 0.3 964.7 -3 94
2020-01-18 13:00:00 9.1 10 Sur 30 Sur 0.1 965.9 -1.8 94
2020-01-18 12:00:00 8.2 8 Sudeste 15 Este 0.6 966.7 -1.1 97
2020-01-18 11:00:00 7.1 4 Este 10 Este 0.2 967.7 0 97
2020-01-18 10:00:00 6.1 4 Sudeste 9 Este 0.4 967.7 0.5 97
2020-01-18 09:00:00 5.6 0 Calma 4 Sur 0.5 967.8 0.4 97
2020-01-18 08:00:00 5.2 0 Calma 12 Oeste 1.1 967.7 0.2 97
2020-01-18 07:00:00 5 0 Calma 7 Este 0.8 967.2 -0.4 97
2020-01-18 06:00:00 5.2 0 Calma 5 Noroeste 0.2 967.4 -1 96
2020-01-18 05:00:00 5.1 0 Calma 5 Noroeste 0 967.5 -1.7 97
2020-01-18 04:00:00 4.8 0 Calma 6 Sudeste 0 967.6 -1.9 97
2020-01-18 03:00:00 4.6 0 Calma 5 Este 0 968.4 -0.2 96
2020-01-18 02:00:00 5.8 3 Oeste 8 Oeste 0 969.2 -0.3 96
2020-01-18 01:00:00 5.6 4 Noroeste 5 Noroeste 0 969.5 -0.5 95
2020-01-18 00:00:00 5.7 0 Calma 6 Sudeste 0 968.6 -1 95
2020-01-17 23:00:00 5.7 3 Este 6 Nordeste 0 969.5 0.1 94
2020-01-17 22:00:00 6.1 0 Calma 4 Norte 0 970 0.8 92
2020-01-17 21:00:00 7.1 2 Sudoeste 9 Oeste 0 969.6 0.7 88
2020-01-17 20:00:00 8 0 Calma 13 Sudoeste 0 969.4 0.6 84
2020-01-17 19:00:00 9.1 8 Sudoeste 13 Sudoeste 0 969.2 0.7 77
2020-01-17 18:00:00 10.7 3 Oeste 14 Oeste 0 968.9 0.2 66
2020-01-17 17:00:00 13.7 4 Oeste 33 Sudoeste 0 968.8 0 60
2020-01-17 16:00:00 13.5 7 Sudoeste 22 Sudoeste 0 968.5 -1 60
2020-01-17 15:00:00 12.1 7 Sudoeste 21 Sudoeste 0 968.7 -1.4 64
2020-01-17 14:00:00 13.6 8 Sudoeste 24 Sudoeste 0 968.8 -0.7 58
2020-01-17 13:00:00 14.8 8 Sudoeste 19 Sudoeste 0 969.5 0.5 57
2020-01-17 12:00:00 11.3 8 Sudoeste 23 Sudoeste 0 970.1 1.8 63
2020-01-17 11:00:00 12.9 7 Sudoeste 20 Sudoeste 0 969.5 2 65
2020-01-17 10:00:00 10.5 5 Sudoeste 12 Sudoeste 0 969 2.5 77
2020-01-17 09:00:00 8 2 Sudoeste 7 Sudoeste 0 968.3 1.8 85
2020-01-17 08:00:00 7.8 3 Sur 6 Sudoeste 0 967.5 1.1 88
2020-01-17 07:00:00 8.1 3 Oeste 9 Oeste 0 966.5 0.2 85
2020-01-17 06:00:00 8.4 3 Oeste 8 Sudoeste 0 966.5 0.1 87
2020-01-17 05:00:00 8.4 3 Noroeste 7 Norte 0 966.4 0.7 81
2020-01-17 04:00:00 8.5 2 Sur 28 Sur 0 966.3 0.1 77
2020-01-17 03:00:00 9.5 8 Sudoeste 16 Sudoeste 0 966.4 0.1 61
2020-01-17 02:00:00 8.8 2 Oeste 12 Sudoeste 0 965.7 -0.1 65
2020-01-17 01:00:00 9.2 4 Norte 12 Sudoeste 0 966.2 0.9 55
2020-01-17 00:00:00 8.5 5 Norte 9 Nordeste 0 966.3 1.2 55
2020-01-16 23:00:00 8.6 0 Calma 7 Nordeste 0 965.8 1.4 52
2020-01-16 22:00:00 8.9 3 Noroeste 9 Sudoeste 0 965.3 1.2 49
2020-01-16 21:00:00 10 6 Sudoeste 11 Sur 0 965.1 1.3 45
2020-01-16 20:00:00 11 7 Sudoeste 10 Sudoeste 0 964.4 0.8 41
2020-01-16 19:00:00 11.8 8 Sudoeste 10 Sudoeste 0 964.1 0.9 37
2020-01-16 18:00:00 13.3 5 Sudoeste 19 Sudoeste 0 963.8 0.2 33
2020-01-16 17:00:00 15.5 13 Sudoeste 28 Sudoeste 0 963.6 -0.4 30
2020-01-16 16:00:00 16.4 17 Sudoeste 28 Sudoeste 0 963.2 -1.6 27
2020-01-16 15:00:00 16.6 13 Sudoeste 26 Sudoeste 0 963.6 -2.1 29
2020-01-16 14:00:00 16.3 14 Sur 24 Sudoeste 0 964 -2 34
2020-01-16 13:00:00 15 14 Sur 21 Sur 0 964.8 -0.8 39
2020-01-16 12:00:00 13.6 4 Este 17 Este 0 965.7 0.5 54
2020-01-16 11:00:00 10.6 6 Este 9 Este 0 966 0.9 69
2020-01-16 10:00:00 8.4 4 Sudeste 7 Sur 0 965.6 0.9 82
2020-01-16 09:00:00 6.8 5 Sudeste 9 Sudeste 0 965.2 0.8 93
2020-01-16 08:00:00 6.9 0 Calma 6 Este 0 965.1 0.3 92
2020-01-16 07:00:00 8 3 Este 10 Este 0 964.7 -0.2 90
2020-01-16 06:00:00 8.3 5 Sudeste 8 Este 0 964.4 -0.5 91
2020-01-16 05:00:00 8.4 3 Este 7 Sudeste 0 964.8 -0.2 91
2020-01-16 04:00:00 8.5 2 Sudeste 6 Sur 0 964.9 -0.5 90
2020-01-16 03:00:00 8.8 2 Este 6 Sudeste 0 964.9 -0.4 85
2020-01-16 02:00:00 8.9 4 Sudeste 6 Este 0 965 0 82
2020-01-16 01:00:00 9.2 3 Sudeste 8 Este 0 965.4 0.6 77
2020-01-16 00:00:00 9.4 4 Sudeste 10 Sudeste 0 965.3 0.7 75
2020-01-15 23:00:00 9.7 4 Sudeste 8 Sudeste 0 965 0.5 75
2020-01-15 22:00:00 10.2 4 Este 12 Este 0 964.8 0.6 73
2020-01-15 21:00:00 10.8 7 Sudoeste 14 Sur 0 964.6 0.8 70
2020-01-15 20:00:00 11.1 0 Calma 11 Sudeste 0 964.5 1.3 67
2020-01-15 19:00:00 11.3 2 Sudeste 18 Sudoeste 0 964.2 1.2 66
2020-01-15 18:00:00 11.6 11 Sudoeste 18 Sur 0 963.8 0.7 64
2020-01-15 17:00:00 12 4 Sur 15 Sudoeste 0 963.2 -0.2 63
2020-01-15 16:00:00 12 10 Sudoeste 41 Sudoeste 0 963 -0.7 59
2020-01-15 15:00:00 12.1 2 Este 15 Sur 0 963.1 -1 56
2020-01-15 14:00:00 10.9 10 Sudoeste 24 Sudoeste 0 963.4 -0.2 58
2020-01-15 13:00:00 12.1 9 Sudoeste 26 Sur 0 963.7 1.1 52
2020-01-15 12:00:00 10.6 3 Sudeste 19 Norte 0 964.1 1.9 68
2020-01-15 11:00:00 5.4 2 Sur 11 Sudeste 0 963.6 1.9 85
2020-01-15 10:00:00 4.1 0 Calma 8 Sudoeste 0 962.6 1.5 86
2020-01-15 09:00:00 2.8 2 Sudeste 8 Este 0 962.2 1.2 95
2020-01-15 08:00:00 2.9 2 Nordeste 5 Este 0 961.7 0.7 94
2020-01-15 07:00:00 3.5 3 Norte 11 Sudeste 0 961.1 -0.1 94
2020-01-15 06:00:00 4.5 3 Este 10 Sudeste 0 961 -0.5 90
2020-01-15 05:00:00 4.8 4 Este 10 Sudeste 0 961 -0.1 87
2020-01-15 04:00:00 6 3 Este 9 Este 0 961.2 -0.3 81
2020-01-15 03:00:00 6.4 3 Norte 7 Este 0 961.5 0 77
2020-01-15 02:00:00 6.7 0 Calma 10 Este 0 961.1 -0.1 77
2020-01-15 01:00:00 7.2 0 Calma 10 Norte 0 961.5 0.2 75
2020-01-15 00:00:00 7.6 2 Este 7 Este 0 961.5 0.9 74
2020-01-14 23:00:00 7.3 4 Nordeste 11 Norte 0 961.2 0.5 74
2020-01-14 22:00:00 7.6 2 Norte 10 Este 0 961.3 0.7 70
2020-01-14 21:00:00 7.9 0 Calma 5 Noroeste 0 960.6 0.5 68
2020-01-14 20:00:00 8.2 2 Este 10 Sudoeste 0 960.7 0.9 66
2020-01-14 19:00:00 8.3 2 Sudoeste 14 Sudoeste 0 960.6 1 64
2020-01-14 18:00:00 9.1 8 Sur 17 Sur 0 960.1 0.2 57
2020-01-14 17:00:00 10.3 12 Sur 19 Sur 0 959.8 -0.6 52
2020-01-14 16:00:00 10.9 7 Sur 16 Sudeste 0 959.6 -2 50
2020-01-14 15:00:00 10.7 7 Sur 14 Sudoeste 0 959.9 -2.6 48
2020-01-14 14:00:00 10.6 5 Nordeste 9 Nordeste 0 960.4 -2.1 54
2020-01-14 13:00:00 7.4 3 Este 9 Este 0 961.6 -0.4 60
2020-01-14 12:00:00 3.1 2 Este 10 Este 0 962.5 0.9 72
2020-01-14 11:00:00 0.3 3 Sudeste 6 Este 0 962.5 0.8 97
2020-01-14 10:00:00 -2.3 0 Calma 5 Este 0 962 1 97
2020-01-14 09:00:00 -3.9 2 Este 6 Este 0 961.6 1.3 97
2020-01-14 08:00:00 -3.9 0 Calma 0 Calma 0 961.7 0.4 97
2020-01-14 07:00:00 -3.2 0 Calma 6 Noroeste 0 961 -0.4 97
2020-01-14 06:00:00 -3.4 0 Calma 6 Sudoeste 0 960.3 -1.2 97
2020-01-14 05:00:00 -2.2 0 Calma 2 Este 0 961.3 -0.6 97
2020-01-14 04:00:00 -1.2 0 Calma 3 Sudoeste 0 961.4 -0.8 97
2020-01-14 03:00:00 -1.2 0 Calma 3 Sudoeste 0 961.5 -0.8 96
2020-01-14 02:00:00 -0.7 0 Calma 4 Noroeste 0 961.9 -0.4 96
2020-01-14 01:00:00 0 0 Calma 5 Norte 0 962.2 0.5 95
2020-01-14 00:00:00 0 0 Calma 6 Noroeste 0 962.3 -0.1 93
2020-01-13 23:00:00 2.5 5 Sudoeste 8 Sudoeste 0 962.3 0 89
2020-01-13 22:00:00 3.8 0 Calma 6 Sudoeste 0 961.7 -0.3 82
2020-01-13 21:00:00 4.8 0 Calma 9 Sudoeste 0 962.4 0.7 74
2020-01-13 20:00:00 6.4 7 Sudoeste 28 Sudoeste 0 962.3 0.3 64
2020-01-13 19:00:00 6.8 9 Sudoeste 12 Sudoeste 0 962 0.1 58
2020-01-13 18:00:00 8.9 6 Sudoeste 10 Sudoeste 0 961.7 -0.6 46
2020-01-13 17:00:00 12.1 3 Oeste 11 Noroeste 0 962 -1 35
2020-01-13 16:00:00 13.7 4 Oeste 16 Oeste 0 961.9 -2.1 35
2020-01-13 15:00:00 13.4 5 Oeste 18 Oeste 0 962.3 -2.9 37
2020-01-13 14:00:00 10.5 4 Nordeste 10 Nordeste 0 963 -2.5 49
2020-01-13 13:00:00 6.2 4 Este 10 Nordeste 0 964 -1.1 63
2020-01-13 12:00:00 3.3 3 Este 12 Sudeste 0 965.2 0.4 73
2020-01-13 11:00:00 0.2 2 Este 5 Este 0 965.5 0.6 97
2020-01-13 10:00:00 -1.9 0 Calma 4 Este 0 965.1 0.3 97
2020-01-13 09:00:00 -3.6 2 Este 4 Nordeste 0 964.8 0.2 97
2020-01-13 08:00:00 -3 0 Calma 2 Sur 0 964.9 0.2 98
2020-01-13 07:00:00 -3 0 Calma 3 Norte 0 964.8 -0.6 97
2020-01-13 06:00:00 -3.1 0 Calma 6 Noroeste 0 964.6 -1 97
2020-01-13 05:00:00 -2.3 0 Calma 2 Sur 0 964.7 -1.3 97
2020-01-13 04:00:00 -2.3 2 Sur 5 Sudoeste 0 965.4 -0.5 97
2020-01-13 03:00:00 -1.9 0 Calma 4 Oeste 0 965.6 -1.3 96
2020-01-13 02:00:00 -0.4 3 Noroeste 5 Noroeste 0 966 -0.8 96
2020-01-13 01:00:00 0.1 0 Calma 4 Sur 0 965.9 -0.8 95
2020-01-13 00:00:00 1.3 0 Calma 5 Sudoeste 0 966.9 0.2 92
2020-01-12 23:00:00 1.4 0 Calma 4 Oeste 0 966.8 0.3 88
2020-01-12 22:00:00 2.8 0 Calma 9 Sudoeste 0 966.7 0.5 81
2020-01-12 21:00:00 4.5 3 Sudoeste 10 Sudoeste 0 966.7 0.8 71
2020-01-12 20:00:00 6.2 6 Oeste 10 Sudoeste 0 966.5 0.8 63
2020-01-12 19:00:00 8.4 9 Sudoeste 13 Sudoeste 0 966.2 0.3 56
2020-01-12 18:00:00 10.1 6 Sudoeste 9 Sudoeste 0 965.9 -0.3 45
2020-01-12 17:00:00 14.8 0 Calma 8 Nordeste 0 965.7 -1.2 34
2020-01-12 16:00:00 14 2 Este 8 Este 0 965.9 -1.7 35
2020-01-12 15:00:00 13 4 Este 9 Nordeste 0 966.2 -3.1 39
2020-01-12 14:00:00 11.8 3 Este 10 Sudeste 0 966.9 -2.6 43
2020-01-12 13:00:00 8.4 4 Este 9 Este 0 967.6 -1.6 56
2020-01-12 12:00:00 4.7 2 Este 7 Este 0 969.3 0.3 65
2020-01-12 11:00:00 -0.6 3 Este 5 Este 0 969.5 1.2 94
2020-01-12 10:00:00 -2.5 2 Nordeste 6 Nordeste 0 969.2 0.7 97
2020-01-12 09:00:00 -3.9 0 Calma 3 Norte 0 969 0.8 97
2020-01-12 08:00:00 -3.5 0 Calma 4 Oeste 0 968.3 -0.1 97
2020-01-12 07:00:00 -2.9 0 Calma -- -- 0 968.5 0.1 97
2020-01-12 06:00:00 -2.2 0 Calma -- -- 0 968.2 0 97
2020-01-12 05:00:00 -2 0 Calma 3 Nordeste 0 968.4 0.2 97
2020-01-12 04:00:00 -1.1 0 Calma 3 Oeste 0 968.4 0.1 96
2020-01-12 03:00:00 -1.4 0 Calma 5 Noroeste 0 968.2 -0.2 96
2020-01-12 02:00:00 -0.5 0 Calma 3 Norte 0 968.2 -0.2 96
2020-01-12 01:00:00 0.3 0 Calma 4 Noroeste 0 968.3 0 96
2020-01-12 00:00:00 1.1 0 Calma 3 Sudoeste 0 968.4 0.4 93
2020-01-11 23:00:00 2.3 0 Calma 3 Sur 0 968.4 0.8 88
2020-01-11 22:00:00 3.2 2 Sur 5 Sudoeste 0 968.3 1.1 81
2020-01-11 21:00:00 4.6 0 Calma 5 Sudeste 0 968 1.2 72
2020-01-11 20:00:00 6.3 0 Calma 4 Sudoeste 0 967.6 0.8 60
2020-01-11 19:00:00 8.6 0 Calma 5 Sudeste 0 967.2 0.9 50
2020-01-11 18:00:00 10.1 3 Sur 8 Sudeste 0 966.8 0 42
2020-01-11 17:00:00 13.7 4 Sudeste 11 Sur 0 966.8 -0.5 36
2020-01-11 16:00:00 13.3 6 Sudeste 25 Este 0 966.3 -2.1 36
2020-01-11 15:00:00 13.3 2 Sur 10 Sudeste 0 966.8 -2 37
2020-01-11 14:00:00 12 4 Este 12 Sudeste 0 967.3 -1.9 42
2020-01-11 13:00:00 9.7 4 Este 10 Este 0 968.4 -0.3 49
2020-01-11 12:00:00 7.4 4 Este 9 Este 0 968.8 1.4 54
2020-01-11 11:00:00 4.2 4 Este 8 Nordeste 0 969.2 1.3 66
2020-01-11 10:00:00 2 4 Este 6 Nordeste 0 968.7 1.3 77
2020-01-11 09:00:00 0.5 0 Calma 4 Noroeste 0 967.4 0.1 92
2020-01-11 08:00:00 0 0 Calma 4 Sur 0 967.9 0.5 88
2020-01-11 07:00:00 1 0 Calma 6 Nordeste 0 967.4 0.2 84
2020-01-11 06:00:00 2 0 Calma 10 Sudoeste 0 967.3 0.4 76
2020-01-11 05:00:00 4.1 6 Oeste 14 Sudoeste 0 967.4 0.4 67
2020-01-11 04:00:00 4.4 4 Noroeste 15 Norte 0 967.2 0 65
2020-01-11 03:00:00 4.1 6 Norte 21 Nordeste 0 966.9 -0.3 64
2020-01-11 02:00:00 5.2 6 Nordeste 15 Nordeste 0 967 0.4 60
2020-01-11 01:00:00 6.1 5 Nordeste 14 Este 0 967.2 0.8 53
2020-01-11 00:00:00 4.8 4 Norte 18 Nordeste 0 967.2 1 51
2020-01-10 23:00:00 7.3 7 Nordeste 14 Nordeste 0 966.6 0.8 43
2020-01-10 22:00:00 7.8 7 Este 21 Este 0 966.4 0.9 41
2020-01-10 21:00:00 7.8 7 Este 19 Este 0 966.2 1.8 42
2020-01-10 20:00:00 8.4 6 Norte 18 Nordeste 0 965.8 1.3 39
2020-01-10 19:00:00 8.6 7 Nordeste 15 Nordeste 0 965.5 1.7 41
2020-01-10 18:00:00 9.9 8 Nordeste 29 Este 0 964.4 0.4 35
2020-01-10 17:00:00 10.8 16 Nordeste 31 Este 0 964.5 0.1 33
2020-01-10 16:00:00 11.8 21 Nordeste 35 Nordeste 0 963.8 -1.1 32
2020-01-10 15:00:00 12 19 Nordeste 33 Nordeste 0 964 -1.1 35
2020-01-10 14:00:00 12.3 15 Nordeste 31 Nordeste 0 964.4 -0.9 37
2020-01-10 13:00:00 12 18 Nordeste 30 Nordeste 0 964.9 0.4 36
2020-01-10 12:00:00 11 4 Sur 11 Sur 0 965.1 0.6 40
2020-01-10 11:00:00 9.6 3 Nordeste 17 Este 0 965.3 1.5 47
2020-01-10 10:00:00 7.2 4 Sur 14 Sudoeste 0 964.5 1.4 77
2020-01-10 09:00:00 4.7 2 Noroeste 6 Norte 0 964.5 1.3 96
2020-01-10 08:00:00 4.5 2 Sudoeste 3 Sur 0 963.8 0.8 96
2020-01-10 07:00:00 3.9 2 Norte 8 Norte 0 963.1 0.1 96
2020-01-10 06:00:00 4 3 Sudeste 9 Sudeste 0 963.2 0 96
2020-01-10 05:00:00 3.7 0 Calma 4 Sudoeste 0 963 0.3 96
2020-01-10 04:00:00 3.9 0 Calma 6 Oeste 0 963 -0.6 96
2020-01-10 03:00:00 2.6 0 Calma 4 Sudoeste 0 963.2 -0.5 96
2020-01-10 02:00:00 3.9 0 Calma 4 Sudoeste 0 962.7 -1.3 97
2020-01-10 01:00:00 3.6 0 Calma 3 Este 0 963.6 -0.3 96
2020-01-10 00:00:00 4.6 0 Calma 6 Sudoeste 0 963.7 -0.4 94
2020-01-09 23:00:00 5.8 5 Sudoeste 9 Sudoeste 0 964 0.5 91
2020-01-09 22:00:00 6.8 6 Oeste 10 Sudoeste 0 963.9 0.8 82
2020-01-09 21:00:00 7.3 6 Oeste 11 Sudoeste 0 964.1 0.5 77
2020-01-09 20:00:00 8.1 0 Calma 18 Sudoeste 0 963.5 1 75
2020-01-09 19:00:00 9.1 7 Sudoeste 18 Oeste 0 963.1 0.6 67
2020-01-09 18:00:00 11.1 8 Oeste 13 Oeste 0 963.6 0.1 49
2020-01-09 17:00:00 13.7 7 Sudoeste 13 Sudoeste 0 962.5 -1.6 43
2020-01-09 16:00:00 12.1 5 Este 8 Este 0 962.5 -2 57
2020-01-09 15:00:00 10.9 2 Este 8 Sudeste 0 963.5 -1.5 60
2020-01-09 14:00:00 8.8 0 Calma 10 Oeste 0 964.1 -1.6 83
2020-01-09 13:00:00 3.5 4 Este 10 Sudeste 0 964.5 -0.4 97
2020-01-09 12:00:00 2.2 6 Este 12 Este 0 965 0.8 97
2020-01-09 11:00:00 1.4 0 Calma 8 Este 0 965.7 1.4 97
2020-01-09 10:00:00 0.8 3 Este 7 Este 0 964.9 0.5 97
2020-01-09 09:00:00 0.5 0 Calma 4 Sudeste 0 964.2 0.3 97
2020-01-09 08:00:00 0.3 0 Calma 6 Este 0 964.3 0.2 97
2020-01-09 07:00:00 -0.1 0 Calma 4 Sudoeste 0 964.4 0 97
2020-01-09 06:00:00 -1 3 Sudoeste 6 Noroeste 0 963.9 -0.5 97
2020-01-09 05:00:00 -0.4 0 Calma 5 Sudoeste 0 964.1 -0.7 97
2020-01-09 04:00:00 0.8 3 Sudoeste 6 Noroeste 0 964.4 -0.7 97
2020-01-09 03:00:00 1.5 0 Calma -- -- 0 964.4 -0.6 97
2020-01-09 02:00:00 2.5 0 Calma 4 Sudoeste 0 964.8 -0.3 96
2020-01-09 01:00:00 2.6 0 Calma 2 Sudoeste 0 965.1 0.1 96
2020-01-09 00:00:00 4 0 Calma -- -- 0 965 0 94
2020-01-08 23:00:00 4.5 0 Calma 0 Calma 0 965.1 0.3 91
2020-01-08 22:00:00 5.7 0 Calma 3 Norte 0 965 0.4 85
2020-01-08 21:00:00 7 0 Calma 5 Sudoeste 0 965 0.9 76
2020-01-08 20:00:00 9.5 5 Sudoeste 9 Sudoeste 0 964.8 0.8 60
2020-01-08 19:00:00 11.1 3 Sudoeste 6 Sudoeste 0 964.6 0.5 51
2020-01-08 18:00:00 13.9 0 Calma 5 Sudeste 0 964.1 0 42
2020-01-08 17:00:00 16.6 2 Sudeste 10 Sudeste 0 964 -0.8 37
2020-01-08 16:00:00 16.5 4 Sudeste 8 Este 0 964.1 -1.9 36
2020-01-08 15:00:00 15.5 2 Este 7 Este 0 964.1 -2.9 38
2020-01-08 14:00:00 11.9 3 Este 8 Este 0 964.8 -2.5 49
2020-01-08 13:00:00 9.3 2 Este 7 Sudeste 0 966 -1.1 60
2020-01-08 12:00:00 4.3 2 Este 7 Sudeste 0 967 0.6 86
2020-01-08 11:00:00 1.3 0 Calma 4 Nordeste 0 967.3 1 97
2020-01-08 10:00:00 -1.1 0 Calma 4 Nordeste 0 967.1 0.8 97
2020-01-08 09:00:00 -1.5 0 Calma 4 Este 0 966.4 -0.1 97
2020-01-08 08:00:00 -1.4 0 Calma 3 Oeste 0 966.3 -0.1 97
2020-01-08 07:00:00 -1.4 0 Calma 4 Sudeste 0 966.3 -0.3 97
2020-01-08 06:00:00 -1.5 0 Calma 4 Nordeste 0 966.5 -0.1 97
2020-01-08 05:00:00 -0.9 0 Calma 3 Oeste 0 966.4 -0.5 97
2020-01-08 04:00:00 -0.2 0 Calma 4 Sudoeste 0 966.6 -0.4 97
2020-01-08 03:00:00 -0.4 0 Calma -- -- 0 966.6 -0.6 96
2020-01-08 02:00:00 1 0 Calma -- -- 0 966.9 -0.5 96
2020-01-08 01:00:00 2.1 0 Calma 2 Nordeste 0 967 -0.3 96
2020-01-08 00:00:00 3 0 Calma 4 Sudoeste 0 967.2 -0.2 95
2020-01-07 23:00:00 3.2 0 Calma 2 Sudeste 0 967.4 0.3 94
2020-01-07 22:00:00 4.7 0 Calma 3 Sudoeste 0 967.3 0.4 87
2020-01-07 21:00:00 5.1 0 Calma 3 Sudoeste 0 967.4 0.8 77
2020-01-07 20:00:00 7.3 4 Sudoeste 8 Sudoeste 0 967.1 0.6 67
2020-01-07 19:00:00 9.8 0 Calma 4 Oeste 0 966.9 0.3 54
2020-01-07 18:00:00 11.3 0 Calma 3 Sudoeste 0 966.6 -0.4 45
2020-01-07 17:00:00 14.5 0 Calma 6 Sudeste 0 966.5 -1.1 43
2020-01-07 16:00:00 13.8 0 Calma 5 Nordeste 0 966.6 -2.2 38
2020-01-07 15:00:00 12.4 2 Este 6 Nordeste 0 967 -2.5 52
2020-01-07 14:00:00 7.6 3 Este 6 Sudeste 0 967.6 -1.8 77
2020-01-07 13:00:00 3.8 2 Sudeste 6 Sudeste 0 968.8 -0.1 97
2020-01-07 12:00:00 2 0 Calma 7 Este 0 969.5 0.5 97
2020-01-07 11:00:00 -0.4 0 Calma 3 Este 0 969.4 0.4 97
2020-01-07 10:00:00 -1 0 Calma -- -- 0 968.9 0 97
2020-01-07 09:00:00 -1.3 0 Calma -- -- 0 969 0.6 97
2020-01-07 08:00:00 -1.1 0 Calma -- -- 0 969 0.7 97
2020-01-07 07:00:00 -1.1 0 Calma 2 Este 0 968.9 0.2 97
2020-01-07 06:00:00 -0.6 0 Calma 2 Este 0 968.4 0.2 97
2020-01-07 05:00:00 -0.5 0 Calma 5 Este 0 968.3 0.5 97
2020-01-07 04:00:00 0.3 0 Calma 5 Sudoeste 0 968.7 0.5 97
2020-01-07 03:00:00 0 3 Sudoeste 6 Sudoeste 0 968.2 0.2 96
2020-01-07 02:00:00 0.8 0 Calma -- -- 0 967.8 0 96
2020-01-07 01:00:00 2.1 0 Calma 7 Sudoeste 0 968.2 0.2 96
2020-01-07 00:00:00 2.1 0 Calma 4 Sudoeste 0 968 0.8 96
2020-01-06 23:00:00 2.5 0 Calma 10 Oeste 0 967.8 1.2 94
2020-01-06 22:00:00 4.8 0 Calma 6 Noroeste 0 968 2.3 91
2020-01-06 21:00:00 4.4 2 Nordeste 6 Sudoeste 0 967.2 1.9 85
2020-01-06 20:00:00 6.5 0 Calma 5 Sudoeste 0 966.6 1.4 77
2020-01-06 19:00:00 8.3 0 Calma 4 Noroeste 0 965.7 0.6 64
2020-01-06 18:00:00 9.6 0 Calma 4 Sudeste 0 965.3 0 54
2020-01-06 17:00:00 11.9 0 Calma 4 Nordeste 0 965.2 -0.8 51
2020-01-06 16:00:00 10.6 0 Calma 5 Nordeste 0 965.1 -2.2 60
2020-01-06 15:00:00 7.7 2 Nordeste 5 Nordeste 0 965.3 -2.5 75
2020-01-06 14:00:00 4.1 3 Este 7 Nordeste 0 966 -1.7 96
2020-01-06 13:00:00 2.2 3 Este 7 Sudeste 0 967.3 0 96
2020-01-06 12:00:00 0.7 0 Calma 5 Este 0 967.8 1 97
2020-01-06 11:00:00 -0.6 0 Calma 5 Nordeste 0 967.7 1.5 97
2020-01-06 10:00:00 -1 2 Este 7 Sudeste 0 967.3 1.4 97